Time;durP1;ratioP1;P1;durP2;ratioP2;P2;SDS_P1;SDS_P2;PMS_P1;PMS_P2;Temp;Humidity;BMP_temperature;BMP_pressure;BME280_temperature;BME280_humidity;BME280_pressure;Samples;Min_cycle;Max_cycle;Signal;HPM_P1;HPM_P2
2022/05/31 03:32:51;;;;;;;;;;;;;;;6.27;90.03;99187.19;6322648;22;19972;-95
2022/05/31 03:35:35;;;;;;;;;;;;;;;;;;;;;
2022/05/31 03:38:09;;;;;;;;;;;;;;;6.24;90.08;99184.66;6341655;22;19993;-94
2022/05/31 03:40:57;;;;;;;;;;;;;;;6.26;90.38;99191.59;6312178;22;19940;-93
2022/05/31 03:43:32;;;;;;;;;;;;;;;6.21;90.43;99183.00;6313882;22;19911;-93
2022/05/31 03:46:12;;;;;;;;;;;;;;;6.18;90.40;99186.59;6274973;22;19907;-92
2022/05/31 03:48:53;;;;;;;;;;;;;;;6.22;90.76;99194.38;6274188;22;19983;-94
2022/05/31 03:51:27;;;;;;;;;;;;;;;6.20;90.38;99193.56;6280504;22;20003;-95
2022/05/31 03:53:52;;;;;;;;;;;;;;;6.18;90.45;99176.06;6257003;22;19908;-94
2022/05/31 03:56:18;;;;;;;;;;;;;;;6.09;90.36;99179.00;6285418;22;19915;-95
2022/05/31 03:58:43;;;;;;;;;;;;;;;6.17;90.69;99184.88;6260649;22;20278;-94
2022/05/31 04:01:09;;;;;;;;;;;;;;;6.13;90.43;99188.53;6250219;22;19921;-91
2022/05/31 04:03:42;;;;;;;;;;;;;;;6.11;90.43;99168.44;6277072;22;19911;-94
2022/05/31 04:09:53;;;;;;;;;;;;;;;6.09;90.67;99178.16;6153291;23;19995;-93
2022/05/31 04:42:52;;;;;;;;;;;;;;;6.09;91.77;99192.16;6293321;22;19930;-93
2022/05/31 04:45:17;;;;;;;;;;;;;;;6.08;91.86;99190.47;6280463;22;20001;-93
2022/05/31 04:47:43;;;;;;;;;;;;;;;6.11;92.00;99184.22;6278286;22;20329;-92
2022/05/31 04:50:08;;;;;;;;;;;;;;;6.06;91.45;99192.25;6280427;22;19911;-91
2022/05/31 07:56:39;;;;;;;;;;;;;;;6.25;93.16;99178.47;6316092;22;19933;-82
2022/05/31 07:59:04;;;;;;;;;;;;;;;6.26;92.99;99183.69;6338864;22;19915;-88
2022/05/31 08:01:30;;;;;;;;;;;;;;;6.23;92.95;99186.44;6310131;22;19911;-81
2022/05/31 08:03:55;;;;;;;;;;;;;;;6.23;93.11;99185.59;6338197;22;19910;-83
2022/05/31 08:06:24;;;;;;;;;;;;;;;6.34;93.09;99178.16;6337669;22;19952;-80
2022/05/31 08:08:50;;;;;;;;;;;;;;;6.23;93.08;99175.91;6311038;22;19994;-84
2022/05/31 08:11:19;;;;;;;;;;;;;;;6.26;93.25;99175.81;6336672;22;20329;-80
2022/05/31 08:13:45;;;;;;;;;;;;;;;6.25;93.04;99187.22;6338688;22;20337;-80
2022/05/31 08:16:12;;;;;;;;;;;;;;;6.24;93.16;99185.53;6338681;22;20345;-80
2022/05/31 08:18:38;;;;;;;;;;;;;;;6.32;93.51;99182.63;6337624;22;19918;-82
2022/05/31 08:21:05;;;;;;;;;;;;;;;6.36;93.30;99185.06;6338705;22;20051;-81
2022/05/31 08:23:31;;;;;;;;;;;;;;;6.33;93.13;99184.34;6337674;22;20385;-81
2022/05/31 08:25:56;;;;;;;;;;;;;;;6.35;93.44;99186.00;6336833;22;19945;-81
2022/05/31 08:28:22;;;;;;;;;;;;;;;6.30;93.21;99174.78;6337964;22;19945;-80
2022/05/31 08:30:48;;;;;;;;;;;;;;;6.28;93.47;99176.59;6337023;22;19941;-82
2022/05/31 08:33:14;;;;;;;;;;;;;;;6.40;93.55;99174.44;6337453;22;20348;-81
2022/05/31 08:35:39;;;;;;;;;;;;;;;6.34;93.33;99171.13;6338326;22;19915;-84
2022/05/31 08:38:04;;;;;;;;;;;;;;;6.32;93.27;99170.31;6338209;22;19942;-82
2022/05/31 08:40:32;;;;;;;;;;;;;;;6.30;93.46;99164.28;6335679;22;19910;-82
2022/05/31 08:43:03;;;;;;;;;;;;;;;6.37;93.54;99170.16;6338103;22;19922;-81
2022/05/31 08:45:35;;;;;;;;;;;;;;;6.25;93.32;99171.44;6337302;22;20234;-85
2022/05/31 08:48:22;;;;;;;;;;;;;;;6.32;93.59;99172.97;6309799;22;19923;-81
2022/05/31 08:56:55;;;;;;;;;;;;;;;6.32;93.59;99175.59;6336271;22;19941;-79
2022/05/31 08:59:24;;;;;;;;;;;;;;;6.33;93.49;99177.31;6306454;22;19922;-81
2022/05/31 09:01:54;;;;;;;;;;;;;;;6.37;93.58;99172.78;6306767;22;20334;-80
2022/05/31 09:04:25;;;;;;;;;;;;;;;6.31;93.25;99173.84;6307310;22;19917;-83
2022/05/31 09:06:50;;;;;;;;;;;;;;;6.34;93.50;99160.59;6306718;22;19911;-80
2022/05/31 09:09:23;;;;;;;;;;;;;;;6.38;93.68;99163.13;6306625;22;19987;-80
2022/05/31 09:12:09;;;;;;;;;;;;;;;6.32;93.30;99159.81;6277748;22;20644;-82
2022/05/31 09:14:43;;;;;;;;;;;;;;;6.29;93.68;99162.53;6306054;22;19926;-82
2022/05/31 09:17:11;;;;;;;;;;;;;;;6.29;93.79;99167.81;6306391;22;19915;-82
2022/05/31 09:19:57;;;;;;;;;;;;;;;6.32;93.55;99164.22;6305411;22;20385;-83
2022/05/31 09:22:22;;;;;;;;;;;;;;;6.34;93.88;99160.59;6305009;22;19989;-80
2022/05/31 09:24:48;;;;;;;;;;;;;;;6.39;93.95;99157.81;6305537;22;19976;-80
2022/05/31 09:27:17;;;;;;;;;;;;;;;6.32;93.72;99159.81;6251001;22;19911;-80
2022/05/31 09:30:01;;;;;;;;;;;;;;;6.40;93.93;99158.66;6305107;22;19914;-81
2022/05/31 09:32:45;;;;;;;;;;;;;;;6.50;94.13;99160.91;6306734;22;19911;-82
2022/05/31 09:35:20;;;;;;;;;;;;;;;6.41;93.93;99160.38;6305422;22;20613;-81
2022/05/31 09:38:04;;;;;;;;;;;;;;;6.39;94.32;99156.97;6279126;22;20261;-82
2022/05/31 09:40:30;;;;;;;;;;;;;;;6.47;94.19;99161.03;6304589;22;19918;-82
2022/05/31 09:43:14;;;;;;;;;;;;;;;6.36;94.01;99152.66;6307004;22;19911;-82
2022/05/31 09:45:48;;;;;;;;;;;;;;;6.30;94.45;99159.00;6279558;22;19914;-81
2022/05/31 09:48:14;;;;;;;;;;;;;;;6.27;94.13;99164.38;6305856;22;19911;-83
2022/05/31 09:50:40;;;;;;;;;;;;;;;6.26;94.00;99167.06;6306537;22;19911;-81
2022/05/31 09:57:05;;;;;;;;;;;;;;;6.32;94.06;99165.06;6305599;22;19911;-81
2022/05/31 09:58:39;;;;;;;;;;;;;;;6.23;93.87;99152.22;6305371;22;19921;-81
2022/05/31 10:01:04;;;;;;;;;;;;;;;6.27;94.06;99158.22;6305959;22;19922;-87
2022/05/31 10:03:43;;;;;;;;;;;;;;;6.36;94.24;99164.03;6306249;22;19915;-82
2022/05/31 10:06:19;;;;;;;;;;;;;;;6.31;93.86;99159.84;6306127;22;19946;-81
2022/05/31 10:08:47;;;;;;;;;;;;;;;6.39;94.20;99163.06;6305044;22;19915;-83
2022/05/31 10:11:21;;;;;;;;;;;;;;;6.41;94.34;99165.66;6305053;22;20338;-81
2022/05/31 10:13:57;;;;;;;;;;;;;;;6.35;94.06;99166.72;6278281;22;19917;-82
2022/05/31 10:16:27;;;;;;;;;;;;;;;6.43;94.38;99163.81;6279094;22;19926;-81
2022/05/31 10:18:54;;;;;;;;;;;;;;;6.41;94.57;99163.00;6306460;22;19919;-80
2022/05/31 10:21:38;;;;;;;;;;;;;;;6.39;94.28;99157.81;6278644;22;19946;-82
2022/05/31 10:24:07;;;;;;;;;;;;;;;6.41;94.80;99155.13;6305938;22;20235;-81
2022/05/31 10:26:34;;;;;;;;;;;;;;;6.46;94.83;99159.31;6303007;22;19914;-81
2022/05/31 10:29:01;;;;;;;;;;;;;;;6.43;94.57;99161.19;6278025;22;20315;-84
2022/05/31 10:31:29;;;;;;;;;;;;;;;6.42;94.53;99164.75;6306096;22;20303;-80
2022/05/31 10:33:59;;;;;;;;;;;;;;;6.43;95.00;99154.16;6306160;22;20288;-81
2022/05/31 10:36:26;;;;;;;;;;;;;;;6.46;95.01;99154.06;6279166;22;20514;-82
2022/05/31 10:38:51;;;;;;;;;;;;;;;6.44;94.86;99152.38;6278230;22;19964;-81
2022/05/31 10:41:22;;;;;;;;;;;;;;;6.45;94.99;99146.22;6303628;22;19914;-82
2022/05/31 10:43:56;;;;;;;;;;;;;;;6.47;95.18;99147.00;6305659;22;19915;-82
2022/05/31 10:46:26;;;;;;;;;;;;;;;6.47;94.97;99153.13;6305852;22;20385;-83
2022/05/31 10:48:53;;;;;;;;;;;;;;;6.46;94.74;99153.19;6305477;22;19917;-81
2022/05/31 10:51:21;;;;;;;;;;;;;;;6.47;94.82;99147.00;6306115;22;19906;-83
2022/05/31 10:53:54;;;;;;;;;;;;;;;6.62;94.85;99149.09;6279081;22;19918;-81
2022/05/31 10:56:27;;;;;;;;;;;;;;;6.58;94.40;99146.63;6304097;22;20238;-83
2022/05/31 10:58:53;;;;;;;;;;;;;;;6.54;94.49;99144.09;6279004;22;19937;-81
2022/05/31 11:01:18;;;;;;;;;;;;;;;6.54;94.53;99140.59;6305882;22;19911;-82
2022/05/31 11:03:46;;;;;;;;;;;;;;;6.60;94.35;99140.38;6306334;22;19957;-81
2022/05/31 11:06:23;;;;;;;;;;;;;;;6.60;94.25;99150.91;6277958;22;19911;-83
2022/05/31 11:11:38;;;;;;;;;;;;;;;6.59;94.01;99143.94;6305861;22;19922;-81
2022/05/31 11:14:22;;;;;;;;;;;;;;;6.54;93.98;99148.50;6307152;22;19950;-81
2022/05/31 11:17:10;;;;;;;;;;;;;;;6.54;93.71;99149.38;6307925;22;19915;-80
2022/05/31 11:19:41;;;;;;;;;;;;;;;6.61;93.48;99147.38;6307976;22;19917;-82
2022/05/31 11:22:16;;;;;;;;;;;;;;;6.64;93.64;99149.88;6307548;22;20284;-81
2022/05/31 11:25:00;;;;;;;;;;;;;;;6.59;93.65;99148.31;6279831;22;19915;-84
2022/05/31 11:27:39;;;;;;;;;;;;;;;6.46;93.46;99163.69;6306380;22;19964;-81
2022/05/31 11:30:04;;;;;;;;;;;;;;;6.50;93.37;99165.31;6307329;22;20281;-81
2022/05/31 11:32:39;;;;;;;;;;;;;;;6.52;92.99;99152.97;6279774;22;19960;-83
2022/05/31 11:35:04;;;;;;;;;;;;;;;6.50;92.87;99154.78;6306818;22;19933;-80
2022/05/31 11:37:53;;;;;;;;;;;;;;;6.51;92.99;99151.22;6279068;22;20330;-81
2022/05/31 11:40:26;;;;;;;;;;;;;;;6.59;92.95;99149.19;6278746;22;20259;-82
2022/05/31 11:42:51;;;;;;;;;;;;;;;6.51;92.87;99143.34;6307260;22;19917;-84
2022/05/31 11:45:25;;;;;;;;;;;;;;;6.48;92.96;99146.09;6280421;22;19906;-82
2022/05/31 11:47:53;;;;;;;;;;;;;;;6.46;92.84;99140.00;6307079;22;19922;-83
2022/05/31 11:50:39;;;;;;;;;;;;;;;6.45;92.55;99146.22;6306894;22;19934;-83
2022/05/31 11:53:08;;;;;;;;;;;;;;;6.45;92.62;99152.31;6307136;22;20005;-83
2022/05/31 11:55:36;;;;;;;;;;;;;;;6.56;92.45;99138.78;6306220;22;20330;-83
2022/05/31 11:58:14;;;;;;;;;;;;;;;6.45;92.42;99151.47;6307075;22;19930;-83
2022/05/31 12:00:43;;;;;;;;;;;;;;;6.46;92.33;99147.91;6279609;22;19915;-80
2022/05/31 12:03:15;;;;;;;;;;;;;;;6.47;92.41;99142.59;6279373;22;20284;-81
2022/05/31 12:05:43;;;;;;;;;;;;;;;6.46;91.97;99143.53;6306672;22;19907;-84
2022/05/31 12:08:08;;;;;;;;;;;;;;;6.38;92.06;99139.44;6307492;22;20337;-82
2022/05/31 12:10:39;;;;;;;;;;;;;;;6.44;92.11;99144.47;6304389;22;19914;-83
2022/05/31 12:13:08;;;;;;;;;;;;;;;6.39;91.71;99143.81;6307349;22;20335;-82
2022/05/31 12:15:34;;;;;;;;;;;;;;;6.46;91.75;99140.00;6273198;22;20353;-83
2022/05/31 12:18:00;;;;;;;;;;;;;;;6.64;91.83;99139.34;6306877;22;19907;-82
2022/05/31 12:20:38;;;;;;;;;;;;;;;6.66;91.79;99134.88;6279508;22;20223;-83
2022/05/31 12:23:03;;;;;;;;;;;;;;;6.69;91.85;99129.50;6271875;22;19914;-83
2022/05/31 12:25:33;;;;;;;;;;;;;;;6.70;92.30;99131.22;6278490;22;20291;-81
2022/05/31 12:28:11;;;;;;;;;;;;;;;6.64;92.36;99131.47;6279978;22;19986;-83
2022/05/31 12:30:58;;;;;;;;;;;;;;;6.47;92.49;99115.44;6306392;22;19915;-82
2022/05/31 12:36:08;;;;;;;;;;;;;;;6.43;92.23;99129.59;6316489;22;19914;-82
2022/05/31 12:38:52;;;;;;;;;;;;;;;6.51;92.34;99131.06;6307429;22;20326;-82
2022/05/31 12:41:38;;;;;;;;;;;;;;;6.53;91.98;99133.63;6305540;22;19985;-82
2022/05/31 12:44:14;;;;;;;;;;;;;;;6.53;92.14;99128.38;6305781;22;20326;-80
2022/05/31 12:46:45;;;;;;;;;;;;;;;6.58;91.74;99123.78;6306214;22;19914;-83
2022/05/31 12:49:19;;;;;;;;;;;;;;;6.58;91.76;99123.78;6306804;22;20005;-82
2022/05/31 12:54:58;;;;;;;;;;;;;;;6.72;91.67;99132.03;6305583;22;19983;-84
2022/05/31 12:58:26;;;;;;;;;;;;;;;6.79;92.00;99137.06;6304915;22;19927;-84
2022/05/31 13:00:32;;;;;;;;;;;;;;;6.85;91.76;99128.94;6305874;22;19911;-85
2022/05/31 13:02:57;;;;;;;;;;;;;;;6.87;92.29;99129.72;6305790;22;19911;-83
2022/05/31 13:05:39;;;;;;;;;;;;;;;6.90;92.59;99134.88;6306217;22;19915;-83
2022/05/31 13:08:13;;;;;;;;;;;;;;;6.91;92.38;99134.81;6279615;22;19946;-84
2022/05/31 13:19:34;;;;;;;;;;;;;;;6.86;92.33;99125.38;6276520;22;19918;-83
2022/05/31 13:21:52;;;;;;;;;;;;;;;6.81;92.35;99136.09;6306471;22;19922;-83
2022/05/31 13:24:18;;;;;;;;;;;;;;;6.79;92.20;99139.69;6306674;22;19988;-81
2022/05/31 13:26:43;;;;;;;;;;;;;;;6.81;92.35;99135.22;6278338;22;19915;-82
2022/05/31 13:29:10;;;;;;;;;;;;;;;6.84;92.39;99132.47;6306699;22;19914;-81
2022/05/31 13:31:45;;;;;;;;;;;;;;;6.80;92.16;99128.25;6306796;22;19917;-84
2022/05/31 13:34:10;;;;;;;;;;;;;;;6.70;92.24;99123.34;6306273;22;19914;-82
2022/05/31 13:36:44;;;;;;;;;;;;;;;6.78;92.13;99119.53;6306720;22;20342;-80
2022/05/31 13:39:11;;;;;;;;;;;;;;;6.82;92.18;99123.78;6306535;22;19914;-82
2022/05/31 13:41:51;;;;;;;;;;;;;;;6.76;91.94;99130.13;6305093;22;19911;-84
2022/05/31 13:44:22;;;;;;;;;;;;;;;6.73;92.10;99115.31;6305658;22;19922;-83
2022/05/31 13:46:49;;;;;;;;;;;;;;;6.77;92.37;99120.47;6305794;22;19907;-81
2022/05/31 13:49:15;;;;;;;;;;;;;;;6.81;92.18;99119.41;6306870;22;19911;-84
2022/05/31 13:51:58;;;;;;;;;;;;;;;6.76;91.75;99118.75;6278799;22;19907;-84
2022/05/31 13:54:26;;;;;;;;;;;;;;;6.80;91.92;99115.09;6306417;22;20289;-82
2022/05/31 13:56:57;;;;;;;;;;;;;;;6.84;91.89;99111.41;6304425;22;19918;-83
2022/05/31 13:59:30;;;;;;;;;;;;;;;6.84;91.69;99116.69;6306486;22;20477;-84
2022/05/31 14:01:55;;;;;;;;;;;;;;;6.76;91.59;99118.75;6305690;22;19922;-83
2022/05/31 14:04:22;;;;;;;;;;;;;;;6.84;91.71;99117.53;6305905;22;19915;-80
2022/05/31 14:06:49;;;;;;;;;;;;;;;6.96;91.64;99116.22;6306157;22;19907;-82
2022/05/31 14:09:17;;;;;;;;;;;;;;;6.97;91.64;99107.38;6306369;22;19930;-83
2022/05/31 14:11:43;;;;;;;;;;;;;;;6.95;91.62;99109.22;6304540;22;20007;-80
2022/05/31 14:14:29;;;;;;;;;;;;;;;6.91;91.93;99115.53;6306319;22;19911;-86
2022/05/31 14:16:56;;;;;;;;;;;;;;;7.05;92.04;99118.50;6305217;22;20246;-82
2022/05/31 14:19:24;;;;;;;;;;;;;;;7.02;91.88;99112.47;6305089;22;20037;-82
2022/05/31 14:21:51;;;;;;;;;;;;;;;7.02;92.02;99115.09;6305605;22;19980;-83
2022/05/31 14:24:19;;;;;;;;;;;;;;;7.00;92.33;99112.53;6305987;22;19926;-84
2022/05/31 14:26:47;;;;;;;;;;;;;;;7.03;92.47;99112.41;6304766;22;20445;-82
2022/05/31 14:29:15;;;;;;;;;;;;;;;7.12;92.35;99115.63;6306343;22;20247;-85
2022/05/31 14:31:45;;;;;;;;;;;;;;;7.01;92.01;99108.13;6307155;22;19918;-83
2022/05/31 14:34:22;;;;;;;;;;;;;;;7.02;92.16;99105.44;6306347;22;19950;-84
2022/05/31 14:36:49;;;;;;;;;;;;;;;7.13;92.29;99107.63;6304804;22;19914;-88
2022/05/31 14:39:20;;;;;;;;;;;;;;;7.15;92.22;99120.75;6278909;22;19957;-84
2022/05/31 14:41:45;;;;;;;;;;;;;;;7.12;91.77;99116.47;6303750;22;19946;-81
2022/05/31 14:44:46;;;;;;;;;;;;;;;7.15;91.98;99113.72;6306288;22;19918;-81
2022/05/31 14:47:21;;;;;;;;;;;;;;;7.20;92.17;99118.81;6243149;23;19918;-80
2022/05/31 14:50:06;;;;;;;;;;;;;;;7.06;91.97;99112.28;6298839;22;19921;-86
2022/05/31 14:52:39;;;;;;;;;;;;;;;7.05;92.19;99118.50;6306822;22;19953;-84
2022/05/31 14:55:09;;;;;;;;;;;;;;;7.14;91.80;99117.25;6307848;22;20262;-83
2022/05/31 15:00:19;;;;;;;;;;;;;;;7.03;91.68;99107.13;6306696;22;19942;-84
2022/05/31 15:02:44;;;;;;;;;;;;;;;7.11;91.62;99112.09;6308030;22;20238;-80
2022/05/31 15:05:10;;;;;;;;;;;;;;;7.04;91.48;99108.88;6280649;22;20255;-86
2022/05/31 15:07:58;;;;;;;;;;;;;;;7.07;91.69;99113.16;6306612;22;20342;-81
2022/05/31 15:10:24;;;;;;;;;;;;;;;7.08;91.61;99115.75;6306519;22;19914;-83
2022/05/31 15:21:10;;;;;;;;;;;;;;;7.05;91.46;99118.50;6283731;22;19918;-82
2022/05/31 15:23:35;;;;;;;;;;;;;;;7.04;91.41;99123.81;6307235;22;20310;-80
2022/05/31 15:26:03;;;;;;;;;;;;;;;6.96;90.92;99112.72;6305304;22;20254;-85
2022/05/31 15:28:28;;;;;;;;;;;;;;;6.93;91.19;99113.69;6307368;22;19911;-82
2022/05/31 15:30:54;;;;;;;;;;;;;;;7.02;91.04;99115.97;6306368;22;19974;-80
2022/05/31 15:33:19;;;;;;;;;;;;;;;7.03;90.80;99112.41;6307296;22;19911;-80
2022/05/31 15:35:44;;;;;;;;;;;;;;;7.08;90.70;99121.00;6279110;22;19956;-81
2022/05/31 15:38:17;;;;;;;;;;;;;;;7.04;91.09;99122.03;6307763;22;19925;-82
2022/05/31 15:40:43;;;;;;;;;;;;;;;7.05;91.11;99115.84;6275392;22;19915;-80
2022/05/31 15:43:09;;;;;;;;;;;;;;;6.98;90.93;99113.53;6278713;22;19960;-85
2022/05/31 15:45:35;;;;;;;;;;;;;;;6.95;91.18;99111.00;6307188;22;20234;-84
2022/05/31 15:48:00;;;;;;;;;;;;;;;6.99;91.33;99117.84;6280141;22;20307;-83
2022/05/31 15:50:26;;;;;;;;;;;;;;;6.99;90.93;99120.47;6307044;22;19907;-85
2022/05/31 15:52:51;;;;;;;;;;;;;;;6.95;90.52;99116.28;6307211;22;19989;-80
2022/05/31 15:55:20;;;;;;;;;;;;;;;7.73;89.97;99122.81;6279610;22;19942;-83
2022/05/31 15:57:46;;;;;;;;;;;;;;;7.30;90.21;99114.03;6306786;22;20220;-82
2022/05/31 16:00:14;;;;;;;;;;;;;;;7.06;90.83;99120.19;6306726;22;19915;-83
2022/05/31 16:02:40;;;;;;;;;;;;;;;7.05;91.48;99125.50;6279847;22;19947;-82
2022/05/31 16:05:06;;;;;;;;;;;;;;;7.06;91.37;99120.19;6306766;22;19911;-82
2022/05/31 16:07:36;;;;;;;;;;;;;;;7.09;91.33;99127.97;6306630;22;19941;-82
2022/05/31 16:10:02;;;;;;;;;;;;;;;7.06;91.62;99125.47;6279295;22;19919;-82
2022/05/31 16:12:28;;;;;;;;;;;;;;;7.04;91.80;99127.31;6305421;22;20280;-83
2022/05/31 16:14:55;;;;;;;;;;;;;;;6.89;91.67;99128.75;6307503;22;19911;-82
2022/05/31 16:17:20;;;;;;;;;;;;;;;6.89;91.85;99127.88;6307346;22;19915;-81
2022/05/31 16:19:46;;;;;;;;;;;;;;;6.94;91.68;99118.06;6307429;22;19943;-82
2022/05/31 16:22:12;;;;;;;;;;;;;;;6.91;91.30;99128.72;6307244;22;19961;-82
2022/05/31 16:24:38;;;;;;;;;;;;;;;6.87;91.62;99122.69;6307389;22;19918;-81
2022/05/31 16:27:04;;;;;;;;;;;;;;;6.95;91.65;99129.44;6278250;22;20250;-82
2022/05/31 16:29:29;;;;;;;;;;;;;;;6.92;91.37;99127.78;6307217;22;19915;-83
2022/05/31 16:31:56;;;;;;;;;;;;;;;7.02;91.16;99120.38;6307273;22;19914;-82
2022/05/31 16:34:22;;;;;;;;;;;;;;;7.03;91.45;99132.63;6279684;22;19915;-81
2022/05/31 16:36:49;;;;;;;;;;;;;;;7.09;91.63;99127.97;6307317;22;20000;-82
2022/05/31 16:42:00;;;;;;;;;;;;;;;6.99;91.32;99133.66;6305556;22;19965;-81
2022/05/31 16:44:27;;;;;;;;;;;;;;;7.00;91.40;99138.00;6306945;22;19914;-82
2022/05/31 16:46:53;;;;;;;;;;;;;;;6.99;91.00;99139.81;6307205;22;19926;-82
2022/05/31 16:49:18;;;;;;;;;;;;;;;7.05;91.13;99138.69;6307069;22;20247;-83
2022/05/31 16:51:46;;;;;;;;;;;;;;;7.07;91.53;99136.88;6307085;22;20262;-82
2022/05/31 16:54:15;;;;;;;;;;;;;;;7.09;91.09;99143.78;6307502;22;19911;-83
2022/05/31 16:56:51;;;;;;;;;;;;;;;7.01;91.01;99151.13;6305514;22;19915;-83
2022/05/31 16:59:17;;;;;;;;;;;;;;;7.08;90.98;99152.63;6306967;22;19997;-83
2022/05/31 17:01:43;;;;;;;;;;;;;;;7.14;91.14;99155.94;6306998;22;20397;-82
2022/05/31 17:04:08;;;;;;;;;;;;;;;7.11;90.69;99149.00;6306942;22;19911;-86
2022/05/31 17:14:47;;;;;;;;;;;;;;;7.02;90.94;99157.25;6306855;22;19957;-83
2022/05/31 17:17:12;;;;;;;;;;;;;;;7.14;90.92;99162.06;6306738;22;19919;-84
2022/05/31 17:19:38;;;;;;;;;;;;;;;7.11;90.84;99151.63;6279751;22;19911;-84
2022/05/31 17:22:03;;;;;;;;;;;;;;;7.09;90.90;99159.59;6307183;22;19911;-84
2022/05/31 17:24:30;;;;;;;;;;;;;;;7.03;91.05;99159.81;6279199;22;19911;-84
2022/05/31 17:26:55;;;;;;;;;;;;;;;7.09;91.19;99156.94;6305225;22;20331;-83
2022/05/31 17:29:23;;;;;;;;;;;;;;;7.15;91.04;99160.25;6306687;22;19993;-84
2022/05/31 17:31:48;;;;;;;;;;;;;;;7.11;90.66;99169.22;6279240;22;19917;-83
2022/05/31 17:34:13;;;;;;;;;;;;;;;6.98;91.27;99169.69;6306573;22;19911;-84
2022/05/31 17:36:40;;;;;;;;;;;;;;;7.04;91.39;99172.09;6306580;22;19997;-84
2022/05/31 17:39:09;;;;;;;;;;;;;;;7.09;91.21;99180.66;6306708;22;19997;-84
2022/05/31 17:41:41;;;;;;;;;;;;;;;7.01;91.04;99182.75;6304759;22;19965;-84
2022/05/31 17:44:09;;;;;;;;;;;;;;;7.11;91.25;99185.88;6306687;22;20235;-84
2022/05/31 17:46:34;;;;;;;;;;;;;;;7.15;91.21;99186.59;6279341;22;20001;-84
2022/05/31 17:49:02;;;;;;;;;;;;;;;7.12;90.96;99186.75;6305996;22;20350;-83
2022/05/31 17:51:32;;;;;;;;;;;;;;;7.07;90.96;99195.69;6306389;22;20285;-84
2022/05/31 17:53:58;;;;;;;;;;;;;;;7.15;90.88;99197.16;6306605;22;19914;-84
2022/05/31 17:56:23;;;;;;;;;;;;;;;7.16;91.27;99201.50;6304883;22;19989;-84
2022/05/31 17:58:51;;;;;;;;;;;;;;;7.15;90.94;99197.16;6306533;22;20300;-84
2022/05/31 18:01:16;;;;;;;;;;;;;;;7.11;90.98;99200.84;6306246;22;20181;-84
2022/05/31 18:03:42;;;;;;;;;;;;;;;7.10;91.23;99205.25;6306342;22;20350;-84
2022/05/31 18:06:09;;;;;;;;;;;;;;;7.14;91.49;99201.56;6306441;22;19922;-84
2022/05/31 18:08:35;;;;;;;;;;;;;;;7.15;91.05;99205.06;6306484;22;19911;-84
2022/05/31 18:11:01;;;;;;;;;;;;;;;7.09;91.12;99207.00;6305117;22;20337;-84
2022/05/31 18:13:26;;;;;;;;;;;;;;;7.14;91.16;99211.25;6306352;22;19939;-84
2022/05/31 18:15:52;;;;;;;;;;;;;;;7.17;91.52;99214.63;6306300;22;19914;-83
2022/05/31 18:18:17;;;;;;;;;;;;;;;7.12;91.16;99216.59;6306383;22;20239;-83
2022/05/31 18:20:43;;;;;;;;;;;;;;;7.06;91.45;99222.09;6308274;22;20053;-84
2022/05/31 18:23:09;;;;;;;;;;;;;;;7.08;91.45;99221.13;6308614;22;19911;-83
2022/05/31 18:25:35;;;;;;;;;;;;;;;7.13;91.59;99222.72;6306980;22;19918;-84
2022/05/31 18:30:45;;;;;;;;;;;;;;;7.08;91.31;99229.03;6308426;22;19969;-83
2022/05/31 18:33:10;;;;;;;;;;;;;;;7.14;91.38;99230.56;6308510;22;19993;-84
2022/05/31 18:35:36;;;;;;;;;;;;;;;7.13;91.14;99231.47;6308375;22;19943;-84
2022/05/31 18:40:38;;;;;;;;;;;;;;;7.09;91.62;99243.91;6317186;22;19957;-84
2022/05/31 18:43:07;;;;;;;;;;;;;;;7.09;91.44;99243.91;6308226;22;19911;-83
2022/05/31 18:45:32;;;;;;;;;;;;;;;7.07;91.25;99240.47;6308148;22;19915;-84
2022/05/31 18:47:58;;;;;;;;;;;;;;;7.03;91.41;99241.47;6308344;22;19918;-84
2022/05/31 18:50:23;;;;;;;;;;;;;;;7.14;91.41;99250.78;6308237;22;19915;-84
2022/05/31 18:52:49;;;;;;;;;;;;;;;7.03;91.14;99252.03;6308204;22;19915;-84
2022/05/31 18:55:15;;;;;;;;;;;;;;;7.02;91.31;99252.97;6306425;22;19914;-84
2022/05/31 18:57:46;;;;;;;;;;;;;;;7.09;91.55;99253.59;6280979;22;20212;-85
2022/05/31 19:00:12;;;;;;;;;;;;;;;7.04;91.09;99245.84;6308595;22;20280;-84
2022/05/31 19:02:38;;;;;;;;;;;;;;;7.02;91.18;99252.97;6308472;22;19993;-84
2022/05/31 19:05:09;;;;;;;;;;;;;;;7.05;91.45;99251.97;6308092;22;20329;-83
2022/05/31 19:07:34;;;;;;;;;;;;;;;7.05;91.09;99258.13;6308135;22;19922;-84
2022/05/31 19:10:01;;;;;;;;;;;;;;;7.01;91.32;99255.66;6308046;22;19910;-84
2022/05/31 19:12:27;;;;;;;;;;;;;;;7.05;91.48;99250.22;6306350;22;20027;-84
2022/05/31 19:14:54;;;;;;;;;;;;;;;7.07;91.14;99251.00;6308076;22;19918;-84
2022/05/31 19:17:19;;;;;;;;;;;;;;;7.03;91.25;99249.38;6308015;22;20338;-84
2022/05/31 19:19:46;;;;;;;;;;;;;;;7.03;91.47;99261.72;6307755;22;20014;-84
2022/05/31 19:22:12;;;;;;;;;;;;;;;7.03;91.28;99265.19;6307913;22;19942;-84
2022/05/31 19:24:37;;;;;;;;;;;;;;;6.96;91.19;99266.34;6280209;22;19961;-84
2022/05/31 19:27:03;;;;;;;;;;;;;;;6.99;91.33;99268.00;6306441;22;20400;-83
2022/05/31 19:29:28;;;;;;;;;;;;;;;6.99;91.30;99274.13;6307726;22;19982;-85
2022/05/31 19:31:55;;;;;;;;;;;;;;;6.91;91.12;99273.56;6307627;22;19915;-83
2022/05/31 19:34:37;;;;;;;;;;;;;;;6.98;91.22;99271.56;6307746;22;19986;-84
2022/05/31 19:37:03;;;;;;;;;;;;;;;7.01;90.95;99277.56;6307574;22;19918;-84
2022/05/31 19:39:28;;;;;;;;;;;;;;;6.94;91.08;99273.47;6307692;22;19915;-84
2022/05/31 19:41:55;;;;;;;;;;;;;;;6.99;91.18;99283.78;6305979;22;19918;-83
2022/05/31 19:44:20;;;;;;;;;;;;;;;6.97;91.05;99286.47;6307710;22;19911;-83
2022/05/31 19:46:46;;;;;;;;;;;;;;;6.93;91.18;99284.91;6280165;22;20369;-83
2022/05/31 19:49:11;;;;;;;;;;;;;;;6.89;91.23;99288.53;6308021;22;19956;-83
2022/05/31 19:51:37;;;;;;;;;;;;;;;6.96;91.22;99297.94;6307438;22;19921;-83
2022/05/31 19:54:02;;;;;;;;;;;;;;;6.93;90.86;99294.59;6308042;22;20436;-84
2022/05/31 19:56:27;;;;;;;;;;;;;;;6.90;90.98;99301.66;6305872;22;19911;-83
2022/05/31 19:58:53;;;;;;;;;;;;;;;6.89;91.05;99304.34;6307458;22;20323;-83
2022/05/31 20:01:18;;;;;;;;;;;;;;;6.93;91.21;99311.22;6307517;22;19911;-84
2022/05/31 20:03:44;;;;;;;;;;;;;;;6.88;90.96;99319.28;6307488;22;19911;-84
2022/05/31 20:06:09;;;;;;;;;;;;;;;6.89;91.17;99330.69;6307528;22;19917;-84
2022/05/31 20:11:19;;;;;;;;;;;;;;;6.86;91.09;99331.66;6306095;22;20268;-84
2022/05/31 20:13:45;;;;;;;;;;;;;;;6.90;91.35;99328.00;6307386;22;19938;-83
2022/05/31 20:16:11;;;;;;;;;;;;;;;6.91;91.43;99323.59;6307409;22;19911;-84
2022/05/31 20:21:10;;;;;;;;;;;;;;;6.89;91.01;99330.69;6318081;22;19964;-85
2022/05/31 20:23:37;;;;;;;;;;;;;;;6.92;91.35;99330.56;6307415;22;19917;-84
2022/05/31 20:26:02;;;;;;;;;;;;;;;6.90;90.99;99332.41;6305589;22;19911;-84
2022/05/31 20:28:29;;;;;;;;;;;;;;;6.86;90.90;99336.06;6307374;22;19926;-84
2022/05/31 20:30:54;;;;;;;;;;;;;;;6.85;91.26;99339.63;6307346;22;19989;-84
2022/05/31 20:33:19;;;;;;;;;;;;;;;6.88;91.18;99336.88;6279762;22;19942;-85
2022/05/31 20:35:46;;;;;;;;;;;;;;;6.80;90.84;99345.03;6307669;22;19985;-84
2022/05/31 20:38:14;;;;;;;;;;;;;;;6.79;91.02;99345.94;6279868;22;19915;-85
2022/05/31 20:40:40;;;;;;;;;;;;;;;6.91;91.18;99347.31;6278136;22;19922;-83
2022/05/31 20:43:06;;;;;;;;;;;;;;;6.85;90.83;99343.09;6279751;22;19911;-84
2022/05/31 20:45:31;;;;;;;;;;;;;;;6.83;91.04;99354.59;6307217;22;19992;-84
2022/05/31 20:47:56;;;;;;;;;;;;;;;6.87;91.24;99349.16;6306938;22;19911;-84
2022/05/31 20:50:22;;;;;;;;;;;;;;;6.88;90.92;99353.53;6307174;22;20430;-84
2022/05/31 20:52:52;;;;;;;;;;;;;;;6.84;91.00;99359.81;6306966;22;19946;-84
2022/05/31 20:55:23;;;;;;;;;;;;;;;6.87;91.55;99364.97;6305591;22;20281;-84
2022/05/31 20:57:49;;;;;;;;;;;;;;;6.84;91.42;99366.84;6306847;22;19937;-84
2022/05/31 21:00:14;;;;;;;;;;;;;;;6.83;91.32;99375.66;6306933;22;20246;-84
2022/05/31 21:02:40;;;;;;;;;;;;;;;6.88;91.56;99373.75;6306833;22;19918;-84
2022/05/31 21:05:05;;;;;;;;;;;;;;;6.85;91.50;99373.84;6307017;22;20356;-84
2022/05/31 21:07:31;;;;;;;;;;;;;;;6.78;91.41;99374.97;6306999;22;19949;-85
2022/05/31 21:09:57;;;;;;;;;;;;;;;6.82;91.66;99373.97;6306871;22;19912;-84
2022/05/31 21:12:23;;;;;;;;;;;;;;;6.83;91.33;99373.03;6305508;22;20264;-84
2022/05/31 21:14:49;;;;;;;;;;;;;;;6.77;91.41;99374.13;6306822;22;19911;-84
2022/05/31 21:17:16;;;;;;;;;;;;;;;6.85;91.44;99376.50;6307056;22;20030;-84